createdAt,value
2022-08-07T00:00:54.945Z,2.33
2022-08-07T00:03:05.420Z,1.30
2022-08-07T00:05:15.642Z,2.17
2022-08-07T00:07:20.674Z,2.37
2022-08-07T00:09:35.393Z,2.10
2022-08-07T00:11:47.805Z,2.50
2022-08-07T00:14:02.593Z,5.50
2022-08-07T00:16:08.937Z,2.83
2022-08-07T00:18:24.549Z,2.73
2022-08-07T00:20:29.697Z,2.63
2022-08-07T00:22:39.604Z,3.13
2022-08-07T00:24:55.133Z,3.37
2022-08-07T00:27:07.248Z,2.80
2022-08-07T00:29:15.364Z,3.50
2022-08-07T00:31:37.148Z,3.90
2022-08-07T00:33:42.635Z,2.70
2022-08-07T00:35:49.508Z,2.57
2022-08-07T00:37:56.606Z,3.13
2022-08-07T00:40:01.347Z,3.37
2022-08-07T00:42:05.824Z,2.80
2022-08-07T00:44:15.120Z,2.90
2022-08-07T00:46:18.959Z,5.93
2022-08-07T00:48:31.807Z,3.17
2022-08-07T00:50:46.237Z,3.43
2022-08-07T00:52:55.218Z,4.07
2022-08-07T00:54:59.105Z,2.63
2022-08-07T00:57:10.691Z,4.17
2022-08-07T00:59:15.923Z,4.10
2022-08-07T01:01:22.427Z,3.00
2022-08-07T01:03:56.510Z,3.73
2022-08-07T01:05:53.827Z,3.53
2022-08-07T01:07:58.168Z,3.33
2022-08-07T01:10:10.308Z,3.60
2022-08-07T01:12:29.988Z,4.37
2022-08-07T01:14:37.155Z,3.73
2022-08-07T01:16:47.329Z,3.30
2022-08-07T01:18:56.586Z,6.40
2022-08-07T01:21:22.559Z,4.23
2022-08-07T01:23:36.384Z,3.20
2022-08-07T01:25:55.311Z,3.57
2022-08-07T01:28:02.737Z,4.20
2022-08-07T01:30:10.785Z,3.87
2022-08-07T01:32:14.398Z,4.27
2022-08-07T01:34:19.537Z,4.60
2022-08-07T01:36:33.608Z,4.37
2022-08-07T01:38:39.127Z,4.80
2022-08-07T01:40:47.606Z,4.80
2022-08-07T01:42:58.625Z,4.27
2022-08-07T01:45:03.537Z,5.00
2022-08-07T01:47:14.806Z,4.57
2022-08-07T01:49:33.173Z,8.73
2022-08-07T01:52:03.522Z,5.47
2022-08-07T01:54:11.954Z,4.97
2022-08-07T01:56:19.525Z,4.60
2022-08-07T01:58:29.834Z,5.43
2022-08-07T02:00:49.113Z,4.77
2022-08-07T02:03:18.471Z,4.70
2022-08-07T02:05:47.878Z,4.63
2022-08-07T02:08:04.033Z,4.50
2022-08-07T02:10:10.951Z,4.50
2022-08-07T02:12:19.980Z,4.97
2022-08-07T02:14:40.742Z,4.50
2022-08-07T02:16:45.605Z,4.37
2022-08-07T02:18:51.336Z,4.67
2022-08-07T02:20:58.170Z,5.33
2022-08-07T02:23:07.840Z,9.40
2022-08-07T02:25:17.428Z,4.63
2022-08-07T02:27:25.624Z,3.87
2022-08-07T02:29:34.334Z,7.17
2022-08-07T02:31:39.432Z,4.97
2022-08-07T02:34:01.936Z,4.00
2022-08-07T02:36:30.175Z,5.30
2022-08-07T02:38:39.546Z,3.80
2022-08-07T02:40:56.109Z,4.83
2022-08-07T02:43:07.921Z,3.73
2022-08-07T02:45:20.667Z,3.60
2022-08-07T02:47:39.382Z,3.67
2022-08-07T02:49:58.406Z,4.50
2022-08-07T02:52:12.995Z,4.67
2022-08-07T02:54:25.178Z,4.47
2022-08-07T02:56:32.445Z,4.13
2022-08-07T02:58:39.642Z,5.37
2022-08-07T03:00:52.846Z,4.00
2022-08-07T03:02:57.567Z,4.47
2022-08-07T03:05:05.049Z,6.07
2022-08-07T03:07:14.418Z,5.33
2022-08-07T03:09:43.896Z,4.90
2022-08-07T03:11:52.507Z,5.67
2022-08-07T03:14:04.459Z,5.80
2022-08-07T03:16:12.505Z,5.10
2022-08-07T03:18:20.297Z,5.90
2022-08-07T03:20:29.002Z,6.00
2022-08-07T03:22:37.506Z,5.90
2022-08-07T03:24:45.919Z,5.07
2022-08-07T03:26:58.122Z,5.97
2022-08-07T03:29:04.906Z,5.77
2022-08-07T03:31:26.134Z,5.70
2022-08-07T03:33:46.267Z,5.47
2022-08-07T03:35:53.196Z,5.70
2022-08-07T03:38:04.758Z,5.50
2022-08-07T03:40:16.204Z,5.63
2022-08-07T03:42:22.329Z,5.57
2022-08-07T03:44:34.226Z,6.27
2022-08-07T03:47:11.367Z,6.10
2022-08-07T03:49:06.563Z,6.47
2022-08-07T03:51:16.803Z,5.80
2022-08-07T03:54:01.876Z,5.03
2022-08-07T03:56:04.427Z,5.43
2022-08-07T03:59:04.868Z,7.27
2022-08-07T04:00:37.024Z,5.63
2022-08-07T04:02:43.130Z,6.40
2022-08-07T04:04:53.691Z,5.63
2022-08-07T04:07:00.152Z,8.03
2022-08-07T04:09:05.217Z,7.13
2022-08-07T04:12:23.385Z,5.43
2022-08-07T04:14:10.159Z,6.47
2022-08-07T04:16:10.857Z,6.37
2022-08-07T04:18:56.739Z,5.47
2022-08-07T04:20:54.368Z,5.97
2022-08-07T04:23:02.199Z,5.80
2022-08-07T04:25:12.864Z,5.20
2022-08-07T04:27:25.133Z,4.57
2022-08-07T04:29:30.469Z,6.50
2022-08-07T04:32:03.353Z,5.40
2022-08-07T04:34:17.433Z,4.97
2022-08-07T04:36:32.527Z,4.77
2022-08-07T04:38:36.751Z,4.77
2022-08-07T04:40:51.769Z,4.30
2022-08-07T04:43:01.705Z,4.50
2022-08-07T04:45:09.092Z,4.87
2022-08-07T04:47:23.630Z,4.30
2022-08-07T04:49:58.158Z,4.43
2022-08-07T04:52:15.088Z,4.77
2022-08-07T04:54:30.253Z,5.00
2022-08-07T04:58:15.885Z,4.20
2022-08-07T05:00:09.603Z,3.87
2022-08-07T05:01:51.316Z,3.80
2022-08-07T05:04:07.572Z,3.20
2022-08-07T05:06:16.318Z,4.03
2022-08-07T05:08:59.761Z,3.40
2022-08-07T05:11:02.657Z,4.50
2022-08-07T05:14:52.110Z,4.10
2022-08-07T05:15:43.033Z,4.07
2022-08-07T05:17:53.149Z,3.47
2022-08-07T05:19:59.396Z,3.60
2022-08-07T05:22:06.398Z,4.53
2022-08-07T05:24:13.058Z,3.10
2022-08-07T05:26:23.781Z,3.60
2022-08-07T05:28:29.524Z,3.13
2022-08-07T05:30:35.184Z,3.57
2022-08-07T05:32:47.689Z,3.60
2022-08-07T05:34:55.870Z,3.50
2022-08-07T06:03:58.810Z,3.07
2022-08-07T06:06:09.429Z,3.23
2022-08-07T06:08:30.662Z,4.80
2022-08-07T06:10:36.899Z,2.50
2022-08-07T06:12:40.572Z,2.73
2022-08-07T06:14:49.415Z,2.90
2022-08-07T06:16:56.190Z,3.50
2022-08-07T06:19:06.721Z,3.23
2022-08-07T06:22:15.241Z,3.03
2022-08-07T06:24:38.269Z,3.33
2022-08-07T06:26:07.263Z,3.33
2022-08-07T06:28:14.217Z,3.30
2022-08-07T06:30:32.226Z,3.53
2022-08-07T06:32:41.695Z,4.40
2022-08-07T06:34:47.459Z,4.27
2022-08-07T06:36:53.146Z,3.27
2022-08-07T06:40:13.058Z,3.30
2022-08-07T06:41:47.655Z,2.03
2022-08-07T06:44:01.609Z,2.57
2022-08-07T06:46:13.636Z,2.47
2022-08-07T06:48:25.230Z,2.70
2022-08-07T06:50:33.828Z,2.40
2022-08-07T06:52:40.759Z,3.13
2022-08-07T06:55:31.764Z,2.87
2022-08-07T06:57:16.474Z,2.90
2022-08-07T07:00:11.976Z,2.30
2022-08-07T07:01:50.907Z,2.60
2022-08-07T07:04:16.436Z,2.83
2022-08-07T07:06:26.385Z,2.27
2022-08-07T07:08:33.535Z,2.63
2022-08-07T07:10:37.958Z,2.63
2022-08-07T07:12:54.423Z,2.37
2022-08-07T07:15:04.837Z,2.20
2022-08-07T07:17:16.633Z,2.40
2022-08-07T07:19:56.001Z,2.73
2022-08-07T07:22:05.373Z,3.10
2022-08-07T07:24:17.553Z,1.87
2022-08-07T07:26:32.404Z,1.47
2022-08-07T07:29:38.608Z,2.53
2022-08-07T07:31:10.006Z,2.20
2022-08-07T07:33:17.714Z,3.90
2022-08-07T07:35:25.694Z,1.70
2022-08-07T07:38:04.969Z,1.93
2022-08-07T07:40:15.193Z,3.00
2022-08-07T07:42:20.887Z,2.60
2022-08-07T07:44:30.610Z,2.10
2022-08-07T07:46:54.451Z,2.43
2022-08-07T07:50:31.380Z,1.90
2022-08-07T07:51:30.152Z,3.10
2022-08-07T07:53:59.549Z,1.77
2022-08-07T07:56:07.579Z,1.80
2022-08-07T07:58:12.539Z,1.73
2022-08-07T08:00:29.416Z,2.90
2022-08-07T08:02:35.628Z,3.10
2022-08-07T08:04:40.121Z,1.67
2022-08-07T08:06:52.029Z,1.90
2022-08-07T08:09:03.246Z,1.73
2022-08-07T08:11:13.657Z,1.57
2022-08-07T08:13:24.265Z,1.40
2022-08-07T08:15:57.920Z,1.40
2022-08-07T08:18:17.436Z,2.37
2022-08-07T08:20:39.692Z,1.43
2022-08-07T08:27:33.519Z,2.30
2022-08-07T08:30:19.511Z,1.60
2022-08-07T08:32:38.176Z,1.30
2022-08-07T08:34:46.728Z,1.80
2022-08-07T08:37:04.338Z,1.77
2022-08-07T08:39:25.488Z,2.03
2022-08-07T08:41:58.556Z,1.20
2022-08-07T08:44:08.115Z,1.50
2022-08-07T08:46:14.237Z,1.47
2022-08-07T08:48:28.557Z,1.43
2022-08-07T08:53:50.747Z,1.40
2022-08-07T08:56:00.325Z,1.90
2022-08-07T08:58:13.200Z,2.23
2022-08-07T09:00:30.957Z,2.67
2022-08-07T09:02:46.273Z,2.10
2022-08-07T09:05:02.629Z,2.00
2022-08-07T09:07:11.235Z,1.80
2022-08-07T09:09:30.110Z,1.87
2022-08-07T09:11:54.158Z,1.47
2022-08-07T09:14:06.427Z,1.50
2022-08-07T09:16:24.534Z,2.07
2022-08-07T09:18:47.331Z,1.13
2022-08-07T09:21:04.621Z,1.43
2022-08-07T09:24:33.192Z,0.90
2022-08-07T09:25:42.858Z,1.43
2022-08-07T09:28:03.032Z,2.93
2022-08-07T09:30:09.128Z,2.90
2022-08-07T09:32:26.505Z,1.50
2022-08-07T09:34:35.946Z,1.73
2022-08-07T09:36:46.680Z,2.47
2022-08-07T09:38:56.687Z,1.40
2022-08-07T09:41:11.501Z,1.70
2022-08-07T09:43:40.024Z,1.40
2022-08-07T09:47:25.644Z,1.30
2022-08-07T09:48:30.164Z,1.30
2022-08-07T09:50:55.670Z,1.53
2022-08-07T09:53:03.892Z,1.60
2022-08-07T09:55:28.872Z,2.17
2022-08-07T09:58:01.013Z,1.33
2022-08-07T10:00:08.385Z,1.47
2022-08-07T10:02:20.488Z,1.13
2022-08-07T10:04:52.853Z,1.27
2022-08-07T10:07:24.492Z,1.80
2022-08-07T10:09:58.828Z,2.83
2022-08-07T10:12:19.676Z,1.60
2022-08-07T10:14:35.702Z,1.47
2022-08-07T10:16:45.237Z,1.50
2022-08-07T10:19:03.742Z,1.20
2022-08-07T10:22:14.043Z,1.70
2022-08-07T10:24:04.972Z,1.60
2022-08-07T10:26:24.635Z,1.67
2022-08-07T10:28:49.565Z,1.33
2022-08-07T10:30:57.871Z,1.80
2022-08-07T10:33:16.718Z,1.90
2022-08-07T10:35:25.476Z,1.90
2022-08-07T10:38:00.120Z,1.70
2022-08-07T10:40:15.836Z,2.80
2022-08-07T10:42:31.258Z,1.67
2022-08-07T10:44:46.481Z,2.03
2022-08-07T10:46:56.702Z,1.50
2022-08-07T10:49:05.112Z,2.27
2022-08-07T10:51:16.611Z,2.27
2022-08-07T10:53:46.587Z,1.87
2022-08-07T10:55:55.828Z,1.93
2022-08-07T10:58:08.223Z,1.77
2022-08-07T11:00:39.434Z,1.90
2022-08-07T11:02:49.230Z,1.93
2022-08-07T11:05:08.506Z,2.20
2022-08-07T11:07:56.289Z,2.20
2022-08-07T11:10:07.503Z,3.77
2022-08-07T11:12:31.336Z,2.77
2022-08-07T11:14:59.822Z,1.90
2022-08-07T11:23:09.710Z,1.90
2022-08-07T11:28:17.785Z,2.87
2022-08-07T11:30:39.137Z,1.90
2022-08-07T11:32:50.293Z,2.83
2022-08-07T11:34:58.690Z,2.13
2022-08-07T11:37:11.603Z,2.30
2022-08-07T11:39:20.546Z,2.30
2022-08-07T11:42:00.199Z,2.60
2022-08-07T11:44:12.237Z,3.10
2022-08-07T11:46:24.500Z,2.83
2022-08-07T11:49:04.149Z,2.50
2022-08-07T11:51:41.733Z,2.70
2022-08-07T11:54:00.865Z,3.40
2022-08-07T11:56:27.251Z,3.27
2022-08-07T11:58:38.338Z,2.17
2022-08-07T12:00:53.635Z,2.70
2022-08-07T12:03:42.060Z,3.40
2022-08-07T12:05:58.272Z,2.50
2022-08-07T12:08:05.752Z,2.87
2022-08-07T12:10:17.985Z,3.57
2022-08-07T12:12:28.451Z,2.10
2022-08-07T12:14:33.754Z,2.67
2022-08-07T12:16:39.368Z,2.20
2022-08-07T12:18:46.870Z,2.47
2022-08-07T12:21:03.594Z,3.27
2022-08-07T12:23:21.388Z,2.67
2022-08-07T12:26:02.741Z,2.87
2022-08-07T12:28:31.046Z,2.50
2022-08-07T12:30:38.577Z,3.47
2022-08-07T12:33:18.904Z,2.53
2022-08-07T12:35:36.120Z,2.57
2022-08-07T12:38:09.662Z,3.30
2022-08-07T12:40:29.752Z,3.00
2022-08-07T12:42:33.421Z,2.77
2022-08-07T12:44:42.982Z,2.83
2022-08-07T12:46:56.357Z,3.33
2022-08-07T12:49:10.049Z,3.17
2022-08-07T12:51:46.544Z,2.97
2022-08-07T12:54:37.141Z,3.10
2022-08-07T12:56:28.711Z,2.40
2022-08-07T12:58:35.719Z,3.50
2022-08-07T13:00:49.814Z,3.10
2022-08-07T13:03:06.919Z,2.80
2022-08-07T13:06:01.906Z,3.00
2022-08-07T13:08:12.884Z,3.30
2022-08-07T13:10:39.199Z,2.60
2022-08-07T13:12:53.475Z,3.30
2022-08-07T13:15:03.692Z,2.87
2022-08-07T13:17:12.119Z,3.50
2022-08-07T13:19:46.312Z,2.80
2022-08-07T13:22:00.631Z,2.47
2022-08-07T13:24:14.638Z,6.17
2022-08-07T13:26:25.617Z,2.90
2022-08-07T13:28:31.027Z,2.57
2022-08-07T13:30:41.118Z,3.60
2022-08-07T13:32:53.402Z,2.90
2022-08-07T13:34:59.570Z,1.97
2022-08-07T13:37:20.056Z,7.37
2022-08-07T13:40:34.123Z,2.80
2022-08-07T13:41:55.728Z,2.70
2022-08-07T13:44:02.442Z,2.97
2022-08-07T13:46:21.010Z,3.63
2022-08-07T13:48:34.462Z,2.57
2022-08-07T13:50:55.458Z,2.60
2022-08-07T13:53:04.752Z,3.67
2022-08-07T13:55:19.231Z,2.73
2022-08-07T13:57:32.090Z,3.13
2022-08-07T13:59:45.691Z,2.60
2022-08-07T14:02:03.422Z,4.17
2022-08-07T14:04:10.506Z,2.40
2022-08-07T14:06:14.760Z,3.23
2022-08-07T14:08:18.859Z,3.27
2022-08-07T14:10:28.245Z,2.70
2022-08-07T14:12:49.518Z,3.13
2022-08-07T14:15:13.104Z,2.87
2022-08-07T14:18:12.543Z,3.50
2022-08-07T14:20:39.740Z,2.63
2022-08-07T14:22:34.625Z,2.83
2022-08-07T14:24:41.697Z,3.40
2022-08-07T14:26:54.666Z,2.70
2022-08-07T14:30:05.723Z,3.10
2022-08-07T14:31:56.462Z,2.40
2022-08-07T14:34:02.728Z,3.27
2022-08-07T14:36:12.326Z,6.50
2022-08-07T14:38:30.700Z,3.53
2022-08-07T14:40:38.801Z,3.57
2022-08-07T14:43:01.279Z,3.70
2022-08-07T14:47:42.830Z,3.30
2022-08-07T14:49:56.702Z,2.37
2022-08-07T14:54:34.517Z,3.60
2022-08-07T14:56:43.131Z,3.07
2022-08-07T14:58:55.069Z,2.50
2022-08-07T15:01:19.548Z,3.80
2022-08-07T15:03:52.349Z,2.63
2022-08-07T15:05:55.181Z,2.80
2022-08-07T15:10:33.961Z,2.43
2022-08-07T15:12:41.964Z,2.73
2022-08-07T15:14:55.865Z,2.77
2022-08-07T15:17:05.644Z,3.20
2022-08-07T15:19:17.714Z,2.60
2022-08-07T15:21:58.595Z,2.30
2022-08-07T15:25:12.749Z,2.80
2022-08-07T15:26:21.330Z,2.93
2022-08-07T15:33:33.406Z,2.80
2022-08-07T15:36:00.528Z,3.70
2022-08-07T15:38:30.123Z,4.73
2022-08-07T15:40:34.360Z,2.63
2022-08-07T15:42:51.846Z,3.67
2022-08-07T15:44:57.532Z,2.83
2022-08-07T15:47:09.071Z,2.97
2022-08-07T15:50:03.778Z,3.87
2022-08-07T15:54:02.388Z,2.43
2022-08-07T15:56:11.250Z,3.37
2022-08-07T15:58:21.000Z,2.63
2022-08-07T16:00:33.436Z,3.90
2022-08-07T16:02:41.505Z,3.23
2022-08-07T16:04:57.322Z,3.87
2022-08-07T16:07:04.681Z,3.10
2022-08-07T16:09:22.564Z,3.33
2022-08-07T16:11:39.890Z,3.93
2022-08-07T16:14:03.214Z,2.50
2022-08-07T16:16:48.291Z,3.10
2022-08-07T16:18:50.242Z,2.73
2022-08-07T16:22:02.680Z,3.13
2022-08-07T16:23:53.878Z,3.03
2022-08-07T16:26:05.121Z,4.00
2022-08-07T16:30:06.516Z,5.20
2022-08-07T16:30:52.595Z,4.50
2022-08-07T16:34:02.756Z,3.70
2022-08-07T16:35:52.097Z,4.07
2022-08-07T16:38:09.401Z,3.77
2022-08-07T16:40:56.854Z,4.85
2022-08-07T16:43:15.039Z,4.87
2022-08-07T16:46:33.574Z,3.53
2022-08-07T16:50:20.856Z,3.70
2022-08-07T16:52:02.030Z,3.80
2022-08-07T16:54:54.911Z,3.40
2022-08-07T16:57:15.377Z,4.00
2022-08-07T16:59:46.150Z,4.43
2022-08-07T17:02:03.759Z,5.70
2022-08-07T17:04:24.634Z,6.00
2022-08-07T17:06:46.519Z,6.50
2022-08-07T17:09:09.426Z,3.80
2022-08-07T17:11:28.021Z,4.90
2022-08-07T17:14:18.691Z,3.87
2022-08-07T17:16:28.561Z,4.10
2022-08-07T17:18:45.892Z,2.80
2022-08-07T17:20:54.950Z,3.47
2022-08-07T17:23:11.599Z,3.97
2022-08-07T17:25:47.887Z,3.67
2022-08-07T17:28:00.885Z,3.47
2022-08-07T17:30:20.289Z,7.03
2022-08-07T17:32:35.801Z,3.70
2022-08-07T17:35:50.558Z,3.40
2022-08-07T17:38:05.602Z,4.73
2022-08-07T17:40:08.084Z,3.97
2022-08-07T17:42:28.258Z,3.30
2022-08-07T17:44:49.572Z,3.97
2022-08-07T17:47:00.426Z,3.47
2022-08-07T17:49:11.980Z,3.80
2022-08-07T17:52:00.861Z,5.57
2022-08-07T17:54:06.055Z,4.00
2022-08-07T17:56:25.928Z,5.80
2022-08-07T17:58:46.549Z,4.20
2022-08-07T18:00:55.204Z,4.47
2022-08-07T18:03:02.485Z,3.30
2022-08-07T18:05:21.941Z,3.80
2022-08-07T18:07:43.561Z,3.40
2022-08-07T18:10:06.371Z,4.30
2022-08-07T18:12:28.198Z,4.17
2022-08-07T18:14:46.454Z,3.53
2022-08-07T18:16:58.800Z,3.10
2022-08-07T18:21:11.699Z,2.97
2022-08-07T18:21:57.961Z,3.50
2022-08-07T18:24:09.021Z,3.27
2022-08-07T18:26:16.424Z,3.37
2022-08-07T18:28:36.016Z,3.60
2022-08-07T18:30:59.987Z,3.53
2022-08-07T18:33:33.027Z,4.57
2022-08-07T18:35:53.656Z,4.50
2022-08-07T18:38:56.754Z,4.70
2022-08-07T18:41:17.121Z,4.30
2022-08-07T18:43:49.188Z,4.20
2022-08-07T18:46:27.162Z,3.67
2022-08-07T18:50:31.639Z,4.33
2022-08-07T18:52:37.484Z,3.57
2022-08-07T18:54:05.700Z,4.60
2022-08-07T18:56:39.594Z,3.53
2022-08-07T18:59:47.061Z,3.60
2022-08-07T19:02:18.091Z,3.53
2022-08-07T19:04:25.050Z,3.93
2022-08-07T19:06:48.350Z,4.03
2022-08-07T19:09:08.928Z,3.70
2022-08-07T19:11:35.704Z,3.90
2022-08-07T19:13:58.937Z,3.57
2022-08-07T19:17:06.040Z,3.60
2022-08-07T19:18:44.633Z,4.33
2022-08-07T19:21:09.843Z,4.93
2022-08-07T19:23:58.287Z,3.50
2022-08-07T19:25:52.231Z,3.73
2022-08-07T19:28:56.893Z,3.33
2022-08-07T19:31:04.457Z,4.63
2022-08-07T19:33:20.165Z,4.00
2022-08-07T19:35:42.730Z,3.80
2022-08-07T19:37:57.563Z,5.53
2022-08-07T19:40:06.375Z,4.97
2022-08-07T19:42:24.765Z,3.80
2022-08-07T19:44:34.684Z,4.30
2022-08-07T19:46:55.757Z,4.07
2022-08-07T19:49:06.367Z,5.33
2022-08-07T19:51:20.593Z,10.77
2022-08-07T19:54:32.248Z,5.40
2022-08-07T19:56:03.309Z,4.57
2022-08-07T19:58:22.183Z,4.03
2022-08-07T20:00:34.629Z,4.23
2022-08-07T20:02:53.285Z,5.80
2022-08-07T20:05:00.438Z,4.50
2022-08-07T20:07:08.965Z,4.87
2022-08-07T20:10:12.502Z,4.67
2022-08-07T20:12:22.108Z,5.17
2022-08-07T20:14:13.519Z,5.27
2022-08-07T20:16:35.670Z,5.30
2022-08-07T20:18:44.678Z,4.17
2022-08-07T20:20:50.506Z,5.03
2022-08-07T20:22:59.367Z,4.50
2022-08-07T20:25:12.549Z,4.33
2022-08-07T20:27:47.662Z,4.30
2022-08-07T20:29:56.931Z,5.07
2022-08-07T20:32:07.215Z,5.37
2022-08-07T20:34:34.402Z,5.83
2022-08-07T20:36:50.690Z,5.30
2022-08-07T20:39:00.868Z,5.40
2022-08-07T20:41:15.952Z,5.23
2022-08-07T20:43:27.390Z,6.20
2022-08-07T20:46:25.636Z,5.33
2022-08-07T20:47:58.960Z,4.93
2022-08-07T20:50:05.012Z,4.10
2022-08-07T20:52:21.139Z,4.77
2022-08-07T20:54:35.019Z,5.67
2022-08-07T20:56:45.910Z,4.87
2022-08-07T20:58:58.545Z,6.07
2022-08-07T21:01:08.170Z,5.00
2022-08-07T21:03:27.979Z,5.40
2022-08-07T21:05:51.161Z,4.87
2022-08-07T21:08:03.880Z,5.10
2022-08-07T21:10:11.651Z,6.37
2022-08-07T21:12:28.661Z,7.30
2022-08-07T21:14:48.511Z,6.80
2022-08-07T21:18:01.094Z,6.53
2022-08-07T21:19:32.125Z,5.77
2022-08-07T21:21:56.986Z,5.30
2022-08-07T21:24:08.712Z,5.03
2022-08-07T21:26:21.908Z,5.60
2022-08-07T21:28:48.281Z,4.77
2022-08-07T21:31:05.728Z,4.80
2022-08-07T21:33:17.278Z,5.20
2022-08-07T21:36:04.291Z,5.73
2022-08-07T21:38:05.345Z,6.23
2022-08-07T21:40:19.029Z,4.87
2022-08-07T21:42:46.416Z,4.30
2022-08-07T21:44:58.192Z,8.97
2022-08-07T21:47:17.356Z,5.17
2022-08-07T21:49:28.522Z,4.80
2022-08-07T21:52:02.992Z,5.37
2022-08-07T21:54:14.694Z,5.30
2022-08-07T21:56:40.214Z,5.47
2022-08-07T21:59:02.479Z,4.43
2022-08-07T22:01:16.194Z,5.90
2022-08-07T22:03:31.004Z,5.40
2022-08-07T22:05:49.858Z,4.30
2022-08-07T22:07:59.723Z,4.90
2022-08-07T22:10:08.844Z,4.23
2022-08-07T22:12:18.845Z,4.37
2022-08-07T22:14:59.817Z,4.60
2022-08-07T22:17:06.977Z,4.50
2022-08-07T22:19:23.707Z,4.83
2022-08-07T22:22:05.322Z,5.20
2022-08-07T22:24:10.783Z,5.20
2022-08-07T22:26:22.886Z,5.70
2022-08-07T22:28:35.401Z,4.47
2022-08-07T22:30:52.853Z,4.50
2022-08-07T22:33:05.283Z,5.10
2022-08-07T22:35:11.882Z,4.50
2022-08-07T22:37:19.265Z,4.43
2022-08-07T22:39:51.672Z,4.67
2022-08-07T22:42:19.061Z,5.03
2022-08-07T22:44:29.062Z,4.50
2022-08-07T22:47:08.693Z,4.37
2022-08-07T22:49:33.850Z,4.70
2022-08-07T22:52:37.297Z,3.97
2022-08-07T22:55:17.331Z,4.73
2022-08-07T22:57:51.573Z,6.13
2022-08-07T23:00:03.265Z,4.37
2022-08-07T23:02:28.731Z,4.67
2022-08-07T23:04:57.841Z,4.33
2022-08-07T23:07:41.497Z,5.23
2022-08-07T23:10:05.190Z,6.00
2022-08-07T23:12:33.960Z,6.93
2022-08-07T23:14:48.445Z,4.23
2022-08-07T23:17:20.454Z,4.63
2022-08-07T23:20:00.163Z,5.50
2022-08-07T23:22:15.571Z,4.67
2022-08-07T23:24:45.399Z,7.90
2022-08-07T23:27:01.311Z,4.63
2022-08-07T23:30:36.128Z,5.77
2022-08-07T23:34:21.200Z,5.03
2022-08-07T23:34:49.130Z,5.20
2022-08-07T23:37:20.340Z,7.47
2022-08-07T23:39:36.214Z,5.40
2022-08-07T23:42:21.650Z,5.77
2022-08-07T23:44:49.409Z,6.87
2022-08-07T23:47:23.315Z,5.53
2022-08-07T23:50:01.325Z,6.60
2022-08-07T23:53:06.776Z,5.17
2022-08-07T23:54:57.464Z,4.87
2022-08-07T23:57:10.517Z,6.33
